createdAt,value
2018-06-10T00:00:47.561Z,100.00
2018-06-10T00:03:16.137Z,100.00
2018-06-10T00:05:44.565Z,100.00
2018-06-10T00:08:13.019Z,100.00
2018-06-10T00:10:41.463Z,100.00
2018-06-10T00:13:09.898Z,100.00
2018-06-10T00:15:38.377Z,100.00
2018-06-10T00:18:06.799Z,100.00
2018-06-10T00:20:35.239Z,100.00
2018-06-10T00:23:03.829Z,100.00
2018-06-10T00:25:32.261Z,100.00
2018-06-10T00:28:00.751Z,100.00
2018-06-10T00:30:29.181Z,100.00
2018-06-10T00:32:57.609Z,100.00
2018-06-10T00:35:26.023Z,100.00
2018-06-10T00:37:54.457Z,100.00
2018-06-10T00:40:22.916Z,100.00
2018-06-10T00:42:51.324Z,100.00
2018-06-10T00:45:19.715Z,100.00
2018-06-10T00:47:48.134Z,100.00
2018-06-10T00:50:16.656Z,100.00
2018-06-10T00:52:45.329Z,100.00
2018-06-10T00:55:13.746Z,100.00
2018-06-10T00:57:42.159Z,100.00
2018-06-10T01:00:10.617Z,100.00
2018-06-10T01:02:39.087Z,100.00
2018-06-10T01:05:07.555Z,100.00
2018-06-10T01:07:36.003Z,100.00
2018-06-10T01:10:04.458Z,100.00
2018-06-10T01:12:32.907Z,100.00
2018-06-10T01:15:01.337Z,100.00
2018-06-10T01:17:29.891Z,100.00
2018-06-10T01:19:58.417Z,100.00
2018-06-10T01:22:26.870Z,100.00
2018-06-10T01:24:55.307Z,100.00
2018-06-10T01:27:23.867Z,100.00
2018-06-10T01:31:21.797Z,100.00
2018-06-10T01:33:50.227Z,100.00
2018-06-10T01:36:18.648Z,100.00
2018-06-10T01:38:47.079Z,100.00
2018-06-10T01:41:15.498Z,100.00
2018-06-10T01:43:43.928Z,100.00
2018-06-10T01:46:12.380Z,100.00
2018-06-10T01:48:40.801Z,100.00
2018-06-10T01:51:09.204Z,100.00
2018-06-10T01:53:37.763Z,100.00
2018-06-10T01:56:06.191Z,100.00
2018-06-10T01:58:34.644Z,100.00
2018-06-10T02:01:03.098Z,100.00
2018-06-10T02:03:31.471Z,100.00
2018-06-10T02:05:59.907Z,100.00
2018-06-10T02:08:28.324Z,100.00
2018-06-10T02:10:57.190Z,100.00
2018-06-10T02:13:25.678Z,100.00
2018-06-10T02:15:54.107Z,100.00
2018-06-10T02:18:22.532Z,100.00
2018-06-10T02:20:50.934Z,100.00
2018-06-10T02:23:19.407Z,100.00
2018-06-10T02:25:47.816Z,100.00
2018-06-10T02:28:16.252Z,100.00
2018-06-10T02:30:44.708Z,100.00
2018-06-10T02:33:13.099Z,100.00
2018-06-10T02:35:41.549Z,100.00
2018-06-10T02:38:09.995Z,100.00
2018-06-10T02:40:38.444Z,100.00
2018-06-10T02:43:07.078Z,100.00
2018-06-10T02:45:35.519Z,100.00
2018-06-10T02:48:03.985Z,100.00
2018-06-10T02:50:32.411Z,100.00
2018-06-10T02:53:00.889Z,100.00
2018-06-10T02:55:29.295Z,100.00
2018-06-10T02:57:57.724Z,100.00
2018-06-10T03:00:27.106Z,100.00
2018-06-10T03:02:55.496Z,100.00
2018-06-10T03:05:23.945Z,100.00
2018-06-10T03:07:52.342Z,100.00
2018-06-10T03:14:56.040Z,100.00
2018-06-10T03:17:24.483Z,100.00
2018-06-10T03:19:52.891Z,100.00
2018-06-10T03:22:21.422Z,100.00
2018-06-10T03:24:49.872Z,100.00
2018-06-10T03:27:18.387Z,100.00
2018-06-10T03:29:46.927Z,100.00
2018-06-10T03:32:15.349Z,100.00
2018-06-10T03:34:43.869Z,100.00
2018-06-10T03:37:12.301Z,100.00
2018-06-10T03:39:40.710Z,100.00
2018-06-10T03:42:09.167Z,100.00
2018-06-10T03:44:37.588Z,100.00
2018-06-10T03:47:06.021Z,100.00
2018-06-10T03:49:34.622Z,100.00
2018-06-10T03:52:03.137Z,100.00
2018-06-10T03:54:31.568Z,100.00
2018-06-10T03:57:00.030Z,100.00
2018-06-10T03:59:28.480Z,100.00
2018-06-10T04:01:56.900Z,100.00
2018-06-10T04:04:25.326Z,100.00
2018-06-10T04:06:53.761Z,100.00
2018-06-10T04:09:22.424Z,100.00
2018-06-10T04:11:50.900Z,100.00
2018-06-10T04:14:19.499Z,100.00
2018-06-10T04:16:47.933Z,100.00
2018-06-10T04:19:16.421Z,100.00
2018-06-10T04:21:44.828Z,100.00
2018-06-10T04:24:13.316Z,100.00
2018-06-10T04:26:42.649Z,100.00
2018-06-10T04:29:11.092Z,100.00
2018-06-10T04:31:39.516Z,100.00
2018-06-10T04:34:07.932Z,100.00
2018-06-10T04:36:36.481Z,100.00
2018-06-10T04:39:07.014Z,100.00
2018-06-10T04:41:35.468Z,100.00
2018-06-10T04:44:04.131Z,100.00
2018-06-10T04:46:32.543Z,100.00
2018-06-10T04:49:01.028Z,100.00
2018-06-10T04:51:29.535Z,100.00
2018-06-10T04:53:57.958Z,100.00
2018-06-10T04:56:26.391Z,100.00
2018-06-10T04:58:54.955Z,100.00
2018-06-10T05:01:23.432Z,100.00
2018-06-10T05:03:51.904Z,100.00
2018-06-10T05:06:20.339Z,100.00
2018-06-10T05:08:48.744Z,100.00
2018-06-10T05:11:17.171Z,100.00
2018-06-10T05:13:45.591Z,100.00
2018-06-10T05:16:14.237Z,100.00
2018-06-10T05:18:42.738Z,100.00
2018-06-10T05:21:11.170Z,100.00
2018-06-10T05:23:39.582Z,100.00
2018-06-10T05:26:08.061Z,100.00
2018-06-10T05:28:36.511Z,100.00
2018-06-10T05:32:34.300Z,100.00
2018-06-10T05:35:02.781Z,100.00
2018-06-10T05:37:31.210Z,100.00
2018-06-10T05:39:59.680Z,100.00
2018-06-10T05:42:28.116Z,100.00
2018-06-10T05:44:56.577Z,100.00
2018-06-10T05:47:25.012Z,100.00
2018-06-10T05:49:53.406Z,100.00
2018-06-10T05:52:22.047Z,100.00
2018-06-10T05:54:50.479Z,100.00
2018-06-10T05:57:18.920Z,100.00
2018-06-10T05:59:47.391Z,100.00
2018-06-10T06:02:15.844Z,100.00
2018-06-10T06:04:44.272Z,100.00
2018-06-10T06:07:12.753Z,100.00
2018-06-10T06:09:41.156Z,100.00
2018-06-10T06:12:09.564Z,100.00
2018-06-10T06:14:37.966Z,100.00
2018-06-10T06:17:06.436Z,100.00
2018-06-10T06:19:34.834Z,100.00
2018-06-10T06:22:03.252Z,100.00
2018-06-10T06:24:31.703Z,100.00
2018-06-10T06:27:00.272Z,100.00
2018-06-10T06:29:28.727Z,100.00
2018-06-10T06:31:57.171Z,100.00
2018-06-10T06:34:25.658Z,100.00
2018-06-10T06:36:54.075Z,100.00
2018-06-10T06:39:22.503Z,100.00
2018-06-10T06:41:50.967Z,100.00
2018-06-10T06:44:19.415Z,100.00
2018-06-10T06:46:47.851Z,100.00
2018-06-10T06:49:16.276Z,100.00
2018-06-10T06:51:44.711Z,100.00
2018-06-10T06:54:13.151Z,100.00
2018-06-10T06:56:41.539Z,100.00
2018-06-10T06:59:10.024Z,100.00
2018-06-10T07:01:38.827Z,100.00
2018-06-10T07:04:07.335Z,100.00
2018-06-10T07:06:35.746Z,100.00
2018-06-10T07:09:06.047Z,100.00
2018-06-10T07:11:35.047Z,100.00
2018-06-10T07:14:03.479Z,100.00
2018-06-10T07:16:32.121Z,100.00
2018-06-10T07:19:00.547Z,100.00
2018-06-10T07:21:29.184Z,100.00
2018-06-10T07:23:57.630Z,100.00
2018-06-10T07:26:26.283Z,100.00
2018-06-10T07:28:54.963Z,100.00
2018-06-10T07:31:23.403Z,100.00
2018-06-10T07:33:52.036Z,100.00
2018-06-10T07:36:20.454Z,100.00
2018-06-10T07:38:48.892Z,100.00
2018-06-10T07:41:17.494Z,100.00
2018-06-10T07:43:45.925Z,100.00
2018-06-10T07:46:14.367Z,100.00
2018-06-10T07:48:42.810Z,100.00
2018-06-10T07:51:11.370Z,100.00
2018-06-10T07:53:39.784Z,100.00
2018-06-10T07:56:08.200Z,100.00
2018-06-10T07:58:36.780Z,100.00
2018-06-10T08:01:05.220Z,98.72
2018-06-10T08:03:33.715Z,97.87
2018-06-10T08:06:02.128Z,96.27
2018-06-10T08:08:30.560Z,99.50
2018-06-10T08:10:58.966Z,99.28
2018-06-10T08:13:27.359Z,94.86
2018-06-10T08:15:55.851Z,92.49
2018-06-10T08:18:24.339Z,95.08
2018-06-10T08:20:52.837Z,98.72
2018-06-10T08:23:21.444Z,98.13
2018-06-10T08:25:50.018Z,100.00
2018-06-10T08:28:18.500Z,100.00
2018-06-10T08:30:46.926Z,99.56
2018-06-10T08:33:15.381Z,98.88
2018-06-10T08:35:43.803Z,100.00
2018-06-10T08:38:12.267Z,100.00
2018-06-10T08:40:40.722Z,99.73
2018-06-10T08:43:09.168Z,100.00
2018-06-10T08:45:37.627Z,97.80
2018-06-10T08:48:06.111Z,100.00
2018-06-10T08:50:34.674Z,100.00
2018-06-10T08:53:03.076Z,97.62
2018-06-10T08:55:31.549Z,96.06
2018-06-10T08:57:59.983Z,91.51
2018-06-10T09:00:28.400Z,89.51
2018-06-10T09:02:56.950Z,96.92
2018-06-10T09:05:25.268Z,89.57
2018-06-10T09:07:53.695Z,87.24
2018-06-10T09:10:22.207Z,89.38
2018-06-10T09:12:50.756Z,88.18
2018-06-10T09:15:19.511Z,83.48
2018-06-10T09:17:47.897Z,86.37
2018-06-10T09:20:16.310Z,83.27
2018-06-10T09:22:44.784Z,79.91
2018-06-10T09:25:13.476Z,83.05
2018-06-10T09:27:41.895Z,84.70
2018-06-10T09:30:10.343Z,81.96
2018-06-10T09:32:38.756Z,79.79
2018-06-10T09:35:07.161Z,79.86
2018-06-10T09:37:35.715Z,86.29
2018-06-10T09:40:04.425Z,89.97
2018-06-10T09:42:32.880Z,87.25
2018-06-10T09:45:01.319Z,86.03
2018-06-10T09:47:29.852Z,87.07
2018-06-10T09:49:58.310Z,85.45
2018-06-10T09:52:27.046Z,83.57
2018-06-10T09:54:55.501Z,82.41
2018-06-10T09:57:23.983Z,81.78
2018-06-10T10:01:21.779Z,80.40
2018-06-10T10:03:50.188Z,78.15
2018-06-10T10:06:18.623Z,78.15
2018-06-10T10:08:47.273Z,81.29
2018-06-10T10:11:15.913Z,74.80
2018-06-10T10:13:44.328Z,75.61
2018-06-10T10:16:12.919Z,73.78
2018-06-10T10:18:41.333Z,73.19
2018-06-10T10:21:09.735Z,75.85
2018-06-10T10:23:38.252Z,73.98
2018-06-10T10:26:06.694Z,71.06
2018-06-10T10:28:35.218Z,67.70
2018-06-10T10:31:03.647Z,66.74
2018-06-10T10:33:32.215Z,65.28
2018-06-10T10:36:00.652Z,66.95
2018-06-10T10:38:29.095Z,67.15
2018-06-10T10:40:57.512Z,67.61
2018-06-10T10:43:26.109Z,69.52
2018-06-10T10:45:54.607Z,70.86
2018-06-10T10:48:23.042Z,71.95
2018-06-10T10:50:51.430Z,72.24
2018-06-10T10:53:19.895Z,71.50
2018-06-10T10:55:48.291Z,73.40
2018-06-10T10:58:16.707Z,75.09
2018-06-10T11:00:45.143Z,74.68
2018-06-10T11:03:13.772Z,72.96
2018-06-10T11:05:42.215Z,73.89
2018-06-10T11:08:10.729Z,72.67
2018-06-10T11:10:39.175Z,72.60
2018-06-10T11:13:07.588Z,72.82
2018-06-10T11:15:36.010Z,65.12
2018-06-10T11:18:04.423Z,60.80
2018-06-10T11:20:32.817Z,67.35
2018-06-10T11:23:01.256Z,66.47
2018-06-10T11:25:29.699Z,63.58
2018-06-10T11:27:58.109Z,66.05
2018-06-10T11:30:26.547Z,63.26
2018-06-10T11:32:54.946Z,64.80
2018-06-10T11:35:23.348Z,60.69
2018-06-10T11:37:51.747Z,61.16
2018-06-10T11:40:20.155Z,60.90
2018-06-10T11:42:48.560Z,58.40
2018-06-10T11:45:17.003Z,55.37
2018-06-10T11:47:45.416Z,53.76
2018-06-10T11:50:14.691Z,52.45
2018-06-10T11:52:43.178Z,52.92
2018-06-10T11:55:11.609Z,56.31
2018-06-10T11:57:40.067Z,51.75
2018-06-10T12:00:08.703Z,49.24
2018-06-10T12:02:37.340Z,50.49
2018-06-10T12:05:05.767Z,56.12
2018-06-10T12:07:34.183Z,48.92
2018-06-10T12:10:02.627Z,46.20
2018-06-10T12:12:31.184Z,48.10
2018-06-10T12:14:59.660Z,50.03
2018-06-10T12:17:28.288Z,52.81
2018-06-10T12:19:56.723Z,51.26
2018-06-10T12:22:25.127Z,47.19
2018-06-10T12:24:53.568Z,48.05
2018-06-10T12:27:23.067Z,48.24
2018-06-10T12:29:51.471Z,51.17
2018-06-10T12:32:19.907Z,51.98
2018-06-10T12:34:48.451Z,49.22
2018-06-10T12:37:17.210Z,49.71
2018-06-10T12:39:45.651Z,49.35
2018-06-10T12:42:14.083Z,50.02
2018-06-10T12:44:42.557Z,47.62
2018-06-10T12:47:11.004Z,48.96
2018-06-10T12:56:23.719Z,46.69
2018-06-10T12:58:52.128Z,45.55
2018-06-10T13:01:20.541Z,43.91
2018-06-10T13:03:49.548Z,44.80
2018-06-10T13:06:18.158Z,44.42
2018-06-10T13:08:46.571Z,46.64
2018-06-10T13:11:14.968Z,45.13
2018-06-10T13:13:43.443Z,44.66
2018-06-10T13:16:11.847Z,43.27
2018-06-10T13:18:41.302Z,43.57
2018-06-10T13:21:09.852Z,43.61
2018-06-10T13:23:38.349Z,43.65
2018-06-10T13:26:06.795Z,41.96
2018-06-10T13:28:35.240Z,41.30
2018-06-10T13:31:03.745Z,40.88
2018-06-10T13:33:32.179Z,40.95
2018-06-10T13:36:00.591Z,42.14
2018-06-10T13:38:29.023Z,44.01
2018-06-10T13:40:57.424Z,45.30
2018-06-10T13:43:25.896Z,45.10
2018-06-10T13:45:54.320Z,46.39
2018-06-10T13:48:22.885Z,51.57
2018-06-10T13:50:51.624Z,45.55
2018-06-10T13:53:20.036Z,41.84
2018-06-10T13:55:48.495Z,45.66
2018-06-10T13:58:17.227Z,44.32
2018-06-10T14:00:45.673Z,41.00
2018-06-10T14:03:14.100Z,41.69
2018-06-10T14:05:42.519Z,40.28
2018-06-10T14:08:11.055Z,39.55
2018-06-10T14:10:39.480Z,40.05
2018-06-10T14:13:07.984Z,40.86
2018-06-10T14:15:36.387Z,38.53
2018-06-10T14:18:04.942Z,42.02
2018-06-10T14:20:33.407Z,41.58
2018-06-10T14:23:01.812Z,37.92
2018-06-10T14:25:30.298Z,42.73
2018-06-10T14:27:59.031Z,45.00
2018-06-10T14:30:27.542Z,48.19
2018-06-10T14:32:55.972Z,47.48
2018-06-10T14:35:24.395Z,48.23
2018-06-10T14:37:52.871Z,49.55
2018-06-10T14:40:21.271Z,50.11
2018-06-10T14:42:49.686Z,50.54
2018-06-10T14:45:18.132Z,51.05
2018-06-10T14:47:46.734Z,52.22
2018-06-10T14:50:15.187Z,49.32
2018-06-10T14:52:43.587Z,45.30
2018-06-10T14:55:12.034Z,46.49
2018-06-10T14:57:40.464Z,46.82
2018-06-10T15:00:08.992Z,47.99
2018-06-10T15:02:37.591Z,45.60
2018-06-10T15:05:06.433Z,41.57
2018-06-10T15:07:34.867Z,39.01
2018-06-10T15:10:03.435Z,39.29
2018-06-10T15:12:32.304Z,39.93
2018-06-10T15:15:00.724Z,36.91
2018-06-10T15:17:29.189Z,36.97
2018-06-10T15:19:57.619Z,38.54
2018-06-10T15:22:26.065Z,39.19
2018-06-10T15:24:54.542Z,39.51
2018-06-10T15:27:22.949Z,38.01
2018-06-10T15:29:51.360Z,38.38
2018-06-10T15:32:19.762Z,41.60
2018-06-10T15:34:48.198Z,37.77
2018-06-10T15:37:16.787Z,40.21
2018-06-10T15:39:45.504Z,38.23
2018-06-10T15:42:13.943Z,39.20
2018-06-10T15:44:42.402Z,39.85
2018-06-10T15:47:10.814Z,41.39
2018-06-10T15:49:39.231Z,41.74
2018-06-10T15:52:07.864Z,39.67
2018-06-10T15:54:36.266Z,37.86
2018-06-10T15:57:04.773Z,42.33
2018-06-10T15:59:33.374Z,39.00
2018-06-10T16:02:02.153Z,37.58
2018-06-10T16:04:31.152Z,38.15
2018-06-10T16:06:59.596Z,38.24
2018-06-10T16:09:28.051Z,36.99
2018-06-10T16:11:56.463Z,41.67
2018-06-10T16:14:24.924Z,40.43
2018-06-10T16:16:53.699Z,42.93
2018-06-10T16:19:22.527Z,44.45
2018-06-10T16:21:51.041Z,42.72
2018-06-10T16:24:19.458Z,46.27
2018-06-10T16:26:47.888Z,44.18
2018-06-10T16:29:16.411Z,41.78
2018-06-10T16:31:44.833Z,43.22
2018-06-10T16:34:13.309Z,43.96
2018-06-10T16:36:41.726Z,39.91
2018-06-10T16:39:10.156Z,37.47
2018-06-10T16:41:38.633Z,36.82
2018-06-10T16:44:07.115Z,37.95
2018-06-10T16:46:35.570Z,39.64
2018-06-10T16:49:04.015Z,40.33
2018-06-10T16:51:32.423Z,37.50
2018-06-10T16:54:00.920Z,40.15
2018-06-10T16:56:29.651Z,39.24
2018-06-10T16:58:58.313Z,36.99
2018-06-10T17:01:27.181Z,38.27
2018-06-10T17:03:55.707Z,36.53
2018-06-10T17:06:24.123Z,38.61
2018-06-10T17:08:52.834Z,37.23
2018-06-10T17:11:21.295Z,36.58
2018-06-10T17:13:49.816Z,37.74
2018-06-10T17:16:18.271Z,37.70
2018-06-10T17:18:46.913Z,39.15
2018-06-10T17:21:15.642Z,38.90
2018-06-10T17:23:44.323Z,38.01
2018-06-10T17:26:12.768Z,41.32
2018-06-10T17:28:41.165Z,44.43
2018-06-10T17:31:09.738Z,43.44
2018-06-10T17:35:07.521Z,41.91
2018-06-10T17:37:36.316Z,41.82
2018-06-10T17:40:05.675Z,42.62
2018-06-10T17:42:34.128Z,46.00
2018-06-10T17:45:02.739Z,47.07
2018-06-10T17:47:31.218Z,46.92
2018-06-10T17:49:59.611Z,52.23
2018-06-10T17:52:28.012Z,49.01
2018-06-10T17:54:56.477Z,48.31
2018-06-10T17:57:24.906Z,49.85
2018-06-10T17:59:53.663Z,47.60
2018-06-10T18:02:22.136Z,48.86
2018-06-10T18:04:50.947Z,47.25
2018-06-10T18:07:19.458Z,49.10
2018-06-10T18:09:47.853Z,51.10
2018-06-10T18:12:16.260Z,52.72
2018-06-10T18:14:44.667Z,53.98
2018-06-10T18:17:13.119Z,55.62
2018-06-10T18:19:41.546Z,54.76
2018-06-10T18:22:09.983Z,56.14
2018-06-10T18:24:38.392Z,57.00
2018-06-10T18:27:06.876Z,59.47
2018-06-10T18:29:35.328Z,61.17
2018-06-10T18:32:04.054Z,62.92
2018-06-10T18:34:32.491Z,63.06
2018-06-10T18:37:00.927Z,63.34
2018-06-10T18:39:29.361Z,65.05
2018-06-10T18:41:57.793Z,65.71
2018-06-10T18:44:26.502Z,66.23
2018-06-10T18:46:55.204Z,67.43
2018-06-10T18:49:23.663Z,69.36
2018-06-10T18:51:52.099Z,67.61
2018-06-10T18:54:20.617Z,68.36
2018-06-10T18:56:49.039Z,70.12
2018-06-10T18:59:17.504Z,70.08
2018-06-10T19:01:45.985Z,70.44
2018-06-10T19:04:14.426Z,70.61
2018-06-10T19:06:42.880Z,72.10
2018-06-10T19:09:11.366Z,72.90
2018-06-10T19:11:39.839Z,71.16
2018-06-10T19:14:08.403Z,73.18
2018-06-10T19:16:36.927Z,72.21
2018-06-10T19:19:05.396Z,72.38
2018-06-10T19:21:33.828Z,73.48
2018-06-10T19:24:02.253Z,74.36
2018-06-10T19:26:30.660Z,74.69
2018-06-10T19:28:59.108Z,74.54
2018-06-10T19:31:27.590Z,74.80
2018-06-10T19:33:55.993Z,74.24
2018-06-10T19:36:24.476Z,74.08
2018-06-10T19:38:52.983Z,75.78
2018-06-10T19:41:21.400Z,75.81
2018-06-10T19:43:50.152Z,75.08
2018-06-10T19:46:18.595Z,77.42
2018-06-10T19:48:47.174Z,78.81
2018-06-10T19:51:15.643Z,78.54
2018-06-10T19:53:44.103Z,77.94
2018-06-10T19:56:12.559Z,78.05
2018-06-10T19:58:41.011Z,77.76
2018-06-10T20:01:09.736Z,77.90
2018-06-10T20:03:38.435Z,76.63
2018-06-10T20:06:07.244Z,78.36
2018-06-10T20:08:35.667Z,78.59
2018-06-10T20:11:04.148Z,79.30
2018-06-10T20:13:32.776Z,77.25
2018-06-10T20:16:01.214Z,76.80
2018-06-10T20:18:29.627Z,76.52
2018-06-10T20:20:58.063Z,78.07
2018-06-10T20:23:26.455Z,79.00
2018-06-10T20:25:55.053Z,79.08
2018-06-10T20:28:23.488Z,79.81
2018-06-10T20:30:51.939Z,81.39
2018-06-10T20:33:20.863Z,79.69
2018-06-10T20:35:49.320Z,79.99
2018-06-10T20:38:17.802Z,80.07
2018-06-10T20:40:46.582Z,80.88
2018-06-10T20:43:15.018Z,81.32
2018-06-10T20:45:43.465Z,80.73
2018-06-10T20:48:11.908Z,82.60
2018-06-10T20:50:40.325Z,82.23
2018-06-10T20:53:08.712Z,84.52
2018-06-10T20:55:37.195Z,85.36
2018-06-10T20:58:05.654Z,85.93
2018-06-10T21:00:34.263Z,86.13
2018-06-10T21:03:02.771Z,87.58
2018-06-10T21:05:31.204Z,87.88
2018-06-10T21:07:59.681Z,89.48
2018-06-10T21:10:28.073Z,90.28
2018-06-10T21:12:56.620Z,89.09
2018-06-10T21:15:25.165Z,87.88
2018-06-10T21:17:53.611Z,88.53
2018-06-10T21:20:22.039Z,85.77
2018-06-10T21:22:50.449Z,87.48
2018-06-10T21:25:18.911Z,89.50
2018-06-10T21:27:47.326Z,95.54
2018-06-10T21:30:16.223Z,95.63
2018-06-10T21:32:44.653Z,95.13
2018-06-10T21:35:13.074Z,95.28
2018-06-10T21:37:41.583Z,94.70
2018-06-10T21:40:10.015Z,93.33
2018-06-10T21:42:38.458Z,94.46
2018-06-10T21:45:06.880Z,92.27
2018-06-10T21:47:35.468Z,91.52
2018-06-10T21:50:03.910Z,91.35
2018-06-10T21:52:32.331Z,92.26
2018-06-10T21:55:00.767Z,92.33
2018-06-10T21:57:29.143Z,93.21
2018-06-10T21:59:57.569Z,97.59
2018-06-10T22:02:26.205Z,93.12
2018-06-10T22:04:54.618Z,94.94
2018-06-10T22:07:23.098Z,97.33
2018-06-10T22:09:51.552Z,96.66
2018-06-10T22:12:19.952Z,96.88
2018-06-10T22:14:48.376Z,97.44
2018-06-10T22:17:16.794Z,96.48
2018-06-10T22:19:45.707Z,95.41
2018-06-10T22:22:14.140Z,95.17
2018-06-10T22:24:42.564Z,93.26
2018-06-10T22:27:11.323Z,95.07
2018-06-10T22:29:39.742Z,97.55
2018-06-10T22:32:08.230Z,97.33
2018-06-10T22:34:36.639Z,96.54
2018-06-10T22:37:05.467Z,96.35
2018-06-10T22:39:34.119Z,96.00
2018-06-10T22:42:02.556Z,99.11
2018-06-10T22:44:31.459Z,100.00
2018-06-10T22:46:59.873Z,100.00
2018-06-10T22:49:28.324Z,100.00
2018-06-10T22:51:56.767Z,100.00
2018-06-10T22:54:41.509Z,100.00
2018-06-10T22:57:10.177Z,100.00
2018-06-10T22:59:38.948Z,100.00
2018-06-10T23:02:08.559Z,100.00
2018-06-10T23:04:37.040Z,100.00
2018-06-10T23:07:05.901Z,100.00
2018-06-10T23:09:34.354Z,100.00
2018-06-10T23:12:02.820Z,100.00
2018-06-10T23:14:31.431Z,100.00
2018-06-10T23:16:59.863Z,100.00
2018-06-10T23:19:28.335Z,100.00
2018-06-10T23:21:56.760Z,100.00
2018-06-10T23:24:25.203Z,100.00
2018-06-10T23:26:53.920Z,100.00
2018-06-10T23:29:22.837Z,100.00
2018-06-10T23:31:51.243Z,100.00
2018-06-10T23:34:19.667Z,100.00
2018-06-10T23:36:48.140Z,100.00
2018-06-10T23:39:16.559Z,100.00
2018-06-10T23:41:45.048Z,100.00
2018-06-10T23:44:13.477Z,100.00
2018-06-10T23:46:41.884Z,100.00
2018-06-10T23:49:10.453Z,100.00
2018-06-10T23:51:38.887Z,100.00
2018-06-10T23:54:07.331Z,100.00
2018-06-10T23:56:35.809Z,100.00
2018-06-10T23:59:04.229Z,100.00
